Time;durP1;ratioP1;P1;durP2;ratioP2;P2;SDS_P1;SDS_P2;PMS_P1;PMS_P2;Temp;Humidity;BMP_temperature;BMP_pressure;BME280_temperature;BME280_humidity;BME280_pressure;Samples;Min_cycle;Max_cycle;Signal;HPM_P1;HPM_P2
2023/07/03 00:01:19;;;;;;;19.17;17.77;;;19.00;99.90;;;;;;5289985;28;20032;-70
2023/07/03 00:03:51;;;;;;;16.88;15.48;;;19.00;99.90;;;;;;5289305;27;20103;-70
2023/07/03 00:06:22;;;;;;;14.55;13.32;;;18.80;99.90;;;;;;5289883;28;20031;-70
2023/07/03 00:08:53;;;;;;;13.60;12.60;;;18.80;99.90;;;;;;5289439;28;20518;-70
2023/07/03 00:11:23;;;;;;;15.48;14.07;;;18.80;99.90;;;;;;5289883;28;20020;-70
2023/07/03 00:13:54;;;;;;;17.60;16.30;;;18.80;99.90;;;;;;5289802;28;20080;-70
2023/07/03 00:16:25;;;;;;;18.48;16.98;;;18.70;99.90;;;;;;5289675;28;20019;-70
2023/07/03 00:18:56;;;;;;;16.98;15.57;;;18.60;99.90;;;;;;5289489;28;20169;-70
2023/07/03 00:21:27;;;;;;;18.92;17.63;;;18.50;99.90;;;;;;5289673;28;20019;-70
2023/07/03 00:23:58;;;;;;;16.58;15.07;;;18.40;99.90;;;;;;5289689;28;20016;-70
2023/07/03 00:26:29;;;;;;;15.52;14.32;;;18.30;99.90;;;;;;5289812;28;20027;-70
2023/07/03 00:29:00;;;;;;;16.70;15.30;;;18.40;99.90;;;;;;5289748;28;20375;-70
2023/07/03 00:31:31;;;;;;;14.10;12.90;;;18.50;99.90;;;;;;5289652;28;20035;-70
2023/07/03 00:34:02;;;;;;;16.23;14.93;;;18.30;99.90;;;;;;5289692;28;20425;-70
2023/07/03 00:36:32;;;;;;;14.05;12.77;;;18.20;99.90;;;;;;5271335;28;20030;-70
2023/07/03 00:39:04;;;;;;;15.13;13.93;;;18.30;99.90;;;;;;5289197;28;20035;-70
2023/07/03 00:41:35;;;;;;;14.80;13.65;;;18.20;99.90;;;;;;5289364;28;20027;-70
2023/07/03 00:44:11;;;;;;;15.27;14.07;;;18.20;99.90;;;;;;5289313;28;20024;-70
2023/07/03 00:46:45;;;;;;;15.82;14.52;;;18.30;99.90;;;;;;5289207;28;20032;-70
2023/07/03 00:49:18;;;;;;;14.70;13.43;;;18.30;99.90;;;;;;5289126;28;20015;-70
2023/07/03 00:51:53;;;;;;;15.45;14.25;;;18.30;99.90;;;;;;5289119;28;20030;-70
2023/07/03 00:54:24;;;;;;;14.77;13.48;;;18.30;99.90;;;;;;5289362;28;20073;-70
2023/07/03 00:56:55;;;;;;;16.05;14.75;;;18.30;99.90;;;;;;5288997;28;20092;-70
2023/07/03 00:59:26;;;;;;;15.00;13.80;;;18.50;99.90;;;;;;5288917;28;20030;-70
2023/07/03 01:02:11;;;;;;;14.60;13.50;;;18.50;99.90;;;;;;5288994;28;20028;-70
2023/07/03 01:05:01;;;;;;;15.35;14.18;;;18.30;99.90;;;;;;5289012;28;20035;-70
2023/07/03 01:07:34;;;;;;;18.35;16.95;;;18.40;99.90;;;;;;5270903;28;20019;-70
2023/07/03 01:10:18;;;;;;;17.90;16.60;;;18.30;99.90;;;;;;5288568;28;20058;-70
2023/07/03 01:12:56;;;;;;;17.02;15.70;;;18.40;99.90;;;;;;5288935;28;20076;-70
2023/07/03 01:15:31;;;;;;;18.73;17.20;;;18.20;99.90;;;;;;5290168;28;20024;-70
2023/07/03 01:18:03;;;;;;;17.45;16.15;;;18.20;99.90;;;;;;5293230;28;20076;-70
2023/07/03 01:20:45;;;;;;;21.30;19.80;;;18.40;99.90;;;;;;5293000;28;20070;-70
2023/07/03 01:23:28;;;;;;;20.95;19.45;;;18.30;99.90;;;;;;5293297;28;20467;-70
2023/07/03 01:26:00;;;;;;;18.58;17.08;;;18.30;99.90;;;;;;5293403;28;20035;-70
2023/07/03 01:28:32;;;;;;;17.20;15.90;;;18.30;99.90;;;;;;5293155;28;20028;-70
2023/07/03 01:31:07;;;;;;;12.82;11.82;;;18.10;99.90;;;;;;5293114;28;20020;-70
2023/07/03 01:33:42;;;;;;;15.02;13.73;;;18.00;99.90;;;;;;5292972;28;20016;-70
2023/07/03 01:36:15;;;;;;;13.13;12.02;;;18.00;99.90;;;;;;5293198;28;20351;-71
2023/07/03 01:38:48;;;;;;;14.02;12.68;;;18.00;99.90;;;;;;5292982;28;20032;-70
2023/07/03 01:41:19;;;;;;;14.27;12.90;;;18.00;99.90;;;;;;5293130;28;20157;-70
2023/07/03 01:43:50;;;;;;;16.00;14.48;;;18.00;99.90;;;;;;5292994;28;20375;-70
2023/07/03 01:46:22;;;;;;;15.73;14.45;;;18.00;99.90;;;;;;5292761;28;20031;-70
2023/07/03 01:48:53;;;;;;;15.52;14.23;;;18.00;99.90;;;;;;5292824;28;20493;-70
2023/07/03 01:51:38;;;;;;;13.43;12.43;;;18.00;99.90;;;;;;5292696;28;20032;-70
2023/07/03 01:54:21;;;;;;;14.27;13.13;;;17.90;99.90;;;;;;5292856;28;20486;-70
2023/07/03 01:56:54;;;;;;;14.48;13.38;;;17.90;99.90;;;;;;5292769;28;20102;-70
2023/07/03 01:59:29;;;;;;;13.32;12.32;;;17.90;99.90;;;;;;5292455;28;20023;-70
2023/07/03 02:02:05;;;;;;;13.70;12.45;;;18.00;99.90;;;;;;5292545;28;20475;-70
2023/07/03 02:04:46;;;;;;;12.85;11.85;;;17.90;99.90;;;;;;5292601;28;20023;-70
2023/07/03 02:07:18;;;;;;;13.60;12.52;;;17.90;99.90;;;;;;5292531;28;20386;-70
2023/07/03 02:09:49;;;;;;;15.10;13.90;;;18.00;99.90;;;;;;5292036;28;20689;-70
2023/07/03 02:12:19;;;;;;;14.77;13.63;;;18.00;99.90;;;;;;5292317;28;20020;-70
2023/07/03 02:14:50;;;;;;;14.85;13.68;;;17.90;99.90;;;;;;5292191;28;20456;-70
2023/07/03 02:17:21;;;;;;;13.82;12.80;;;18.10;99.90;;;;;;5292303;28;20030;-70
2023/07/03 02:19:52;;;;;;;13.55;12.38;;;17.90;99.90;;;;;;5291967;28;20035;-71
2023/07/03 02:22:23;;;;;;;14.30;13.30;;;17.90;99.90;;;;;;5291884;28;20547;-70
2023/07/03 02:24:53;;;;;;;13.48;12.35;;;17.70;99.90;;;;;;5291932;28;20076;-70
2023/07/03 02:27:24;;;;;;;14.10;12.68;;;17.80;99.90;;;;;;5291255;28;20023;-70
2023/07/03 02:29:55;;;;;;;12.90;11.80;;;17.80;99.90;;;;;;5291830;28;20062;-70
2023/07/03 02:32:36;;;;;;;11.65;10.55;;;17.70;99.90;;;;;;5291719;28;20024;-70
2023/07/03 02:35:08;;;;;;;10.32;9.52;;;17.70;99.90;;;;;;5291774;28;20038;-70
2023/07/03 02:37:39;;;;;;;11.15;10.15;;;17.60;99.90;;;;;;5291718;28;20106;-70
2023/07/03 02:40:13;;;;;;;11.70;10.73;;;17.60;99.90;;;;;;5291519;28;20138;-70
2023/07/03 02:42:44;;;;;;;13.07;11.98;;;17.70;99.90;;;;;;5291540;28;20019;-70
2023/07/03 02:45:16;;;;;;;14.48;13.38;;;17.60;99.90;;;;;;5291640;28;20423;-70
2023/07/03 02:47:46;;;;;;;11.60;10.60;;;17.70;99.90;;;;;;5291574;28;20551;-70
2023/07/03 02:50:17;;;;;;;10.95;9.95;;;17.60;99.90;;;;;;5291404;28;20023;-70
2023/07/03 02:52:48;;;;;;;12.90;11.80;;;17.60;99.90;;;;;;5291574;28;20023;-70
2023/07/03 02:55:19;;;;;;;13.50;12.40;;;17.70;99.90;;;;;;5291803;28;20042;-70
2023/07/03 02:57:50;;;;;;;10.98;9.90;;;17.70;99.90;;;;;;5291489;28;20027;-70
2023/07/03 03:00:21;;;;;;;10.93;10.02;;;17.50;99.90;;;;;;5291316;28;20028;-70
2023/07/03 03:02:52;;;;;;;11.35;10.45;;;17.60;99.90;;;;;;5291236;28;20355;-70
2023/07/03 03:05:23;;;;;;;10.55;9.65;;;17.70;99.90;;;;;;5291248;28;20024;-70
2023/07/03 03:07:53;;;;;;;10.57;9.70;;;17.60;99.90;;;;;;5291083;28;20790;-70
2023/07/03 03:10:24;;;;;;;11.02;10.02;;;17.50;99.90;;;;;;5291035;28;20073;-70
2023/07/03 03:12:55;;;;;;;12.35;11.20;;;17.60;99.90;;;;;;5291072;28;20027;-70
2023/07/03 03:15:27;;;;;;;11.10;10.15;;;17.50;99.90;;;;;;5290906;28;20059;-70
2023/07/03 03:17:58;;;;;;;11.30;10.40;;;17.60;99.90;;;;;;5290833;28;20032;-70
2023/07/03 03:20:29;;;;;;;12.07;11.02;;;17.70;99.90;;;;;;5290839;28;20031;-70
2023/07/03 03:23:00;;;;;;;11.60;10.68;;;17.80;99.90;;;;;;5290846;28;20486;-70
2023/07/03 03:25:30;;;;;;;11.88;10.85;;;17.90;99.90;;;;;;5290854;28;20482;-70
2023/07/03 03:28:01;;;;;;;12.10;11.20;;;18.00;99.90;;;;;;5290610;28;20431;-70
2023/07/03 03:30:32;;;;;;;12.13;11.23;;;18.00;99.90;;;;;;5290727;28;20027;-70
2023/07/03 03:33:03;;;;;;;12.57;11.57;;;17.90;99.90;;;;;;5290712;28;20084;-70
2023/07/03 03:35:34;;;;;;;12.95;11.75;;;18.00;99.90;;;;;;5290390;28;20023;-70
2023/07/03 03:38:05;;;;;;;13.65;12.55;;;18.20;99.90;;;;;;5289872;28;20418;-70
2023/07/03 03:40:36;;;;;;;12.75;11.77;;;18.10;99.90;;;;;;5289424;28;20032;-70
2023/07/03 03:43:06;;;;;;;11.63;10.57;;;18.20;99.90;;;;;;5290527;28;20059;-70
2023/07/03 03:45:37;;;;;;;13.65;12.48;;;18.20;99.90;;;;;;5290505;28;20076;-70
2023/07/03 03:48:08;;;;;;;13.88;12.82;;;18.20;99.90;;;;;;5290177;28;20031;-70
2023/07/03 03:50:39;;;;;;;12.98;12.07;;;18.30;99.90;;;;;;5290224;28;20028;-70
2023/07/03 03:53:10;;;;;;;13.45;12.32;;;18.50;99.90;;;;;;5290206;28;20062;-70
2023/07/03 03:55:41;;;;;;;13.75;12.70;;;18.50;99.90;;;;;;5290214;28;20520;-70
2023/07/03 03:58:11;;;;;;;15.70;14.40;;;18.60;99.90;;;;;;5290237;28;20032;-70
2023/07/03 04:00:43;;;;;;;15.05;13.85;;;18.60;99.90;;;;;;5289841;28;20054;-70
2023/07/03 04:03:14;;;;;;;15.90;14.63;;;18.70;99.90;;;;;;5290057;28;20108;-70
2023/07/03 04:05:45;;;;;;;15.35;14.27;;;18.80;99.90;;;;;;5289947;28;20328;-70
2023/07/03 04:08:16;;;;;;;14.50;13.50;;;18.80;99.90;;;;;;5271831;28;20051;-70
2023/07/03 04:10:47;;;;;;;14.82;13.73;;;19.00;99.90;;;;;;5290107;28;20040;-70
2023/07/03 04:13:17;;;;;;;16.02;14.85;;;18.90;99.90;;;;;;5289950;28;20354;-70
2023/07/03 04:15:59;;;;;;;16.48;15.25;;;19.00;99.90;;;;;;5289852;28;20080;-70
2023/07/03 04:18:31;;;;;;;16.92;15.73;;;19.10;99.90;;;;;;5289863;28;20438;-70
2023/07/03 04:21:01;;;;;;;16.25;15.15;;;19.30;99.90;;;;;;5289650;28;20039;-70
2023/07/03 04:23:32;;;;;;;16.45;15.23;;;19.40;99.90;;;;;;5289689;28;20028;-70
2023/07/03 04:26:03;;;;;;;14.20;13.00;;;19.50;99.90;;;;;;5289740;28;20106;-70
2023/07/03 04:28:34;;;;;;;14.48;13.27;;;19.70;99.90;;;;;;5289483;28;20559;-70
2023/07/03 04:31:05;;;;;;;14.13;12.75;;;19.90;99.90;;;;;;5289586;28;20032;-70
2023/07/03 04:33:36;;;;;;;14.82;13.73;;;19.90;99.90;;;;;;5289615;28;20382;-71
2023/07/03 04:36:07;;;;;;;14.55;13.27;;;20.30;99.90;;;;;;5289301;28;20028;-70
2023/07/03 04:38:41;;;;;;;15.10;14.00;;;20.40;99.90;;;;;;5289366;28;20036;-70
2023/07/03 04:41:14;;;;;;;14.60;13.50;;;20.60;99.90;;;;;;5289280;28;20122;-71
2023/07/03 04:43:48;;;;;;;15.80;14.50;;;20.80;99.90;;;;;;5289274;28;20028;-70
2023/07/03 04:46:25;;;;;;;15.52;14.23;;;21.00;99.90;;;;;;5289200;28;20035;-70
2023/07/03 04:49:00;;;;;;;17.00;15.52;;;21.20;99.90;;;;;;5289237;28;20042;-71
2023/07/03 04:51:32;;;;;;;20.35;18.65;;;21.60;99.90;;;;;;5288959;28;20027;-71
2023/07/03 04:54:03;;;;;;;18.00;16.40;;;21.90;99.90;;;;;;5289127;28;20028;-71
2023/07/03 04:56:34;;;;;;;16.90;15.50;;;22.30;99.90;;;;;;5289119;28;20082;-70
2023/07/03 04:59:05;;;;;;;16.08;14.65;;;22.40;99.90;;;;;;5288954;28;20035;-71
2023/07/03 05:01:36;;;;;;;17.80;16.08;;;22.50;99.90;;;;;;5289491;28;20035;-70
2023/07/03 05:04:07;;;;;;;19.45;17.60;;;22.80;99.90;;;;;;5289096;28;20044;-71
2023/07/03 05:06:38;;;;;;;19.10;17.27;;;22.90;99.90;;;;;;5288832;28;20119;-71
2023/07/03 05:09:09;;;;;;;17.95;16.58;;;23.00;99.90;;;;;;5288753;28;20078;-71
2023/07/03 05:11:41;;;;;;;17.63;16.02;;;23.00;99.90;;;;;;5288855;28;20040;-70
2023/07/03 05:14:12;;;;;;;17.23;15.85;;;23.10;99.90;;;;;;5288875;28;20489;-71
2023/07/03 05:16:43;;;;;;;16.60;15.02;;;23.30;99.90;;;;;;5270648;28;20145;-70
2023/07/03 05:19:14;;;;;;;16.63;15.20;;;23.50;99.90;;;;;;5288866;28;20073;-70
2023/07/03 05:21:45;;;;;;;14.00;12.75;;;23.60;99.90;;;;;;5288895;28;20036;-70
2023/07/03 05:24:15;;;;;;;14.95;13.75;;;23.70;99.90;;;;;;5289066;28;20437;-71
2023/07/03 05:26:46;;;;;;;15.00;13.45;;;23.80;99.90;;;;;;5288955;28;20024;-70
2023/07/03 05:29:17;;;;;;;12.50;11.27;;;23.80;99.90;;;;;;5288736;28;20099;-70
2023/07/03 05:31:48;;;;;;;11.43;10.23;;;23.80;99.90;;;;;;5288859;28;20358;-70
2023/07/03 05:34:19;;;;;;;11.30;10.20;;;23.80;99.90;;;;;;5288883;28;20047;-70
2023/07/03 05:36:50;;;;;;;11.30;10.10;;;23.90;99.90;;;;;;5288842;28;20457;-70
2023/07/03 05:39:21;;;;;;;12.50;9.40;;;24.00;99.90;;;;;;5288547;28;20036;-70
2023/07/03 05:41:52;;;;;;;10.13;9.20;;;24.00;99.90;;;;;;5288646;28;20379;-70
2023/07/03 05:44:23;;;;;;;10.73;9.35;;;24.20;99.90;;;;;;5288555;28;20386;-70
2023/07/03 05:46:53;;;;;;;10.18;9.25;;;24.30;99.90;;;;;;5288583;28;20024;-70
2023/07/03 05:49:24;;;;;;;11.88;10.38;;;24.40;99.90;;;;;;5288607;28;20457;-70
2023/07/03 05:51:55;;;;;;;10.80;9.90;;;24.50;99.90;;;;;;5288562;28;20028;-70
2023/07/03 05:54:26;;;;;;;10.40;9.15;;;24.60;99.90;;;;;;5288445;28;20016;-70
2023/07/03 05:57:06;;;;;;;11.82;10.80;;;24.60;99.90;;;;;;5288475;28;20471;-70
2023/07/03 05:59:39;;;;;;;10.73;9.50;;;24.50;99.90;;;;;;5288241;28;20024;-70
2023/07/03 06:02:12;;;;;;;11.57;10.52;;;24.70;99.90;;;;;;5289150;28;20076;-70
2023/07/03 06:04:43;;;;;;;12.38;11.18;;;24.70;99.90;;;;;;5292444;28;20027;-70
2023/07/03 06:07:14;;;;;;;12.25;10.90;;;24.70;99.90;;;;;;5292339;28;20036;-70
2023/07/03 06:09:45;;;;;;;11.95;10.90;;;24.80;99.90;;;;;;5291900;28;20479;-70
2023/07/03 06:12:16;;;;;;;13.93;12.70;;;24.80;99.90;;;;;;5292273;28;20057;-71
2023/07/03 06:14:47;;;;;;;14.30;12.98;;;24.90;99.90;;;;;;5292242;28;20019;-70
2023/07/03 06:17:18;;;;;;;15.15;13.65;;;25.00;99.90;;;;;;5292177;28;20035;-70
2023/07/03 06:19:48;;;;;;;14.65;13.23;;;25.00;99.90;;;;;;5291992;28;20019;-70
2023/07/03 06:22:20;;;;;;;16.30;14.65;;;25.00;99.90;;;;;;5291857;28;20084;-70
2023/07/03 06:24:51;;;;;;;14.10;12.80;;;25.10;99.90;;;;;;5292073;28;20004;-70
2023/07/03 06:27:21;;;;;;;17.83;15.15;;;25.20;99.90;;;;;;5292054;28;20035;-70
2023/07/03 06:29:52;;;;;;;14.48;13.10;;;25.30;99.90;;;;;;5291765;28;20084;-70
2023/07/03 06:32:23;;;;;;;13.23;12.23;;;25.40;99.90;;;;;;5291974;28;20034;-70
2023/07/03 06:34:54;;;;;;;14.20;12.73;;;25.30;99.90;;;;;;5291917;28;20382;-70
2023/07/03 06:37:25;;;;;;;14.45;13.18;;;25.30;99.90;;;;;;5291838;28;20070;-70
2023/07/03 06:39:55;;;;;;;14.73;13.32;;;25.20;99.90;;;;;;5291875;28;20031;-70
2023/07/03 06:42:26;;;;;;;14.60;13.13;;;25.10;99.90;;;;;;5292080;28;20027;-70
2023/07/03 06:44:57;;;;;;;15.27;13.77;;;25.00;99.90;;;;;;5291622;28;20095;-70
2023/07/03 06:47:28;;;;;;;15.13;13.63;;;25.00;99.90;;;;;;5291627;28;20123;-70
2023/07/03 06:49:59;;;;;;;16.77;15.23;;;25.00;99.90;;;;;;5291905;28;20024;-70
2023/07/03 06:52:33;;;;;;;17.90;16.40;;;25.00;99.90;;;;;;5291632;28;20027;-71
2023/07/03 06:55:04;;;;;;;18.65;16.83;;;25.00;99.90;;;;;;5291523;28;20081;-70
2023/07/03 06:57:35;;;;;;;17.48;15.82;;;25.00;99.90;;;;;;5291260;28;20020;-71
2023/07/03 07:00:08;;;;;;;17.30;15.77;;;25.10;99.90;;;;;;5291337;28;20046;-71
2023/07/03 07:02:39;;;;;;;17.48;16.02;;;25.00;99.90;;;;;;5291231;28;20509;-70
2023/07/03 07:05:10;;;;;;;17.92;16.42;;;25.10;99.90;;;;;;5291174;28;20028;-70
2023/07/03 07:07:41;;;;;;;16.25;14.75;;;25.40;99.90;;;;;;5291209;28;20027;-70
2023/07/03 07:10:12;;;;;;;17.42;14.90;;;25.40;99.90;;;;;;5290951;28;20490;-71
2023/07/03 07:12:43;;;;;;;14.57;13.27;;;25.30;99.90;;;;;;5290936;28;20059;-70
2023/07/03 07:15:14;;;;;;;14.05;12.57;;;25.40;99.90;;;;;;5290935;28;20110;-71
2023/07/03 07:17:44;;;;;;;13.60;12.45;;;25.60;99.90;;;;;;5290909;28;20114;-70
2023/07/03 07:20:15;;;;;;;13.60;12.27;;;25.60;99.90;;;;;;5290783;28;20468;-70
2023/07/03 07:22:48;;;;;;;14.27;12.85;;;25.70;99.90;;;;;;5290829;28;20026;-70
2023/07/03 07:25:18;;;;;;;13.40;12.07;;;25.90;99.90;;;;;;5290756;28;20055;-70
2023/07/03 07:27:49;;;;;;;12.10;10.75;;;26.00;99.90;;;;;;5290557;28;20031;-70
2023/07/03 07:30:20;;;;;;;12.20;10.93;;;25.90;99.90;;;;;;5290705;28;20055;-70
2023/07/03 07:32:51;;;;;;;12.50;9.68;;;25.70;99.90;;;;;;5290709;28;20416;-70
2023/07/03 07:35:22;;;;;;;10.23;9.23;;;25.70;99.90;;;;;;5290513;28;20027;-70
2023/07/03 07:37:53;;;;;;;12.45;11.18;;;25.60;99.90;;;;;;5290572;28;20040;-70
2023/07/03 07:40:24;;;;;;;12.00;10.90;;;25.60;99.90;;;;;;5290717;28;20562;-70
2023/07/03 07:42:55;;;;;;;12.98;10.93;;;25.60;99.90;;;;;;5272383;28;20042;-70
2023/07/03 07:45:25;;;;;;;11.75;10.55;;;25.60;99.90;;;;;;5290525;28;20031;-70
2023/07/03 07:47:56;;;;;;;10.85;9.60;;;25.70;99.90;;;;;;5290470;28;20012;-70
2023/07/03 07:50:27;;;;;;;12.45;10.60;;;25.50;99.90;;;;;;5290345;28;20023;-70
2023/07/03 07:52:59;;;;;;;12.50;11.40;;;25.60;99.90;;;;;;5290312;28;20043;-70
2023/07/03 07:55:30;;;;;;;13.13;11.77;;;25.50;99.90;;;;;;5290297;28;20051;-71
2023/07/03 07:58:01;;;;;;;13.73;11.70;;;25.60;99.90;;;;;;5290059;28;20075;-70
2023/07/03 08:00:32;;;;;;;11.43;10.23;;;25.70;99.90;;;;;;5289991;28;20035;-71
2023/07/03 08:03:03;;;;;;;11.93;10.75;;;25.60;99.90;;;;;;5290087;28;20104;-70
2023/07/03 08:05:37;;;;;;;13.52;10.85;;;25.40;99.90;;;;;;5290014;28;20031;-70
2023/07/03 08:08:08;;;;;;;15.07;12.15;;;25.40;99.90;;;;;;5289847;28;20058;-70
2023/07/03 08:10:38;;;;;;;12.60;11.40;;;25.50;99.90;;;;;;5289691;28;20534;-70
2023/07/03 08:13:09;;;;;;;14.02;12.52;;;25.60;99.90;;;;;;5289803;28;20072;-70
2023/07/03 08:15:45;;;;;;;14.85;11.90;;;25.70;99.90;;;;;;5289785;28;20058;-70
2023/07/03 08:18:17;;;;;;;15.30;12.68;;;25.80;99.90;;;;;;5289813;28;20031;-70
2023/07/03 08:20:49;;;;;;;16.58;11.15;;;25.90;99.90;;;;;;5289442;28;20078;-70
2023/07/03 08:23:21;;;;;;;14.45;12.95;;;25.80;99.90;;;;;;5289598;28;20030;-70
2023/07/03 08:25:54;;;;;;;15.23;13.57;;;25.70;99.90;;;;;;5288940;28;20015;-70
2023/07/03 08:28:25;;;;;;;17.10;13.15;;;25.70;99.90;;;;;;5289536;28;20016;-70
2023/07/03 08:30:57;;;;;;;16.02;13.40;;;25.80;99.90;;;;;;5289566;28;20016;-70
2023/07/03 08:33:28;;;;;;;12.07;10.82;;;26.10;99.90;;;;;;5289496;28;20024;-70
2023/07/03 08:35:59;;;;;;;15.02;13.10;;;26.20;99.90;;;;;;5289426;28;20467;-70
2023/07/03 08:38:30;;;;;;;14.63;13.20;;;26.00;99.90;;;;;;5289106;28;20024;-70
2023/07/03 08:41:01;;;;;;;16.25;12.88;;;25.80;99.90;;;;;;5289109;28;20044;-70
2023/07/03 08:43:42;;;;;;;17.33;13.93;;;25.90;99.90;;;;;;5289433;28;20030;-70
2023/07/03 08:46:23;;;;;;;18.25;13.90;;;26.00;99.90;;;;;;5289225;28;20034;-71
2023/07/03 08:49:00;;;;;;;18.92;13.80;;;26.10;99.90;;;;;;5289247;28;20026;-70
2023/07/03 08:51:35;;;;;;;17.90;14.65;;;26.00;99.90;;;;;;5289308;28;20108;-70
2023/07/03 08:54:25;;;;;;;19.85;14.55;;;26.00;99.90;;;;;;5289681;28;20016;-70
2023/07/03 08:56:57;;;;;;;20.33;14.10;;;26.00;99.90;;;;;;5271119;28;20028;-70
2023/07/03 08:59:28;;;;;;;20.92;14.20;;;26.10;99.90;;;;;;5289045;28;20114;-70
2023/07/03 09:02:23;;;;;;;19.23;13.18;;;26.30;99.90;;;;;;5289232;28;20126;-70
2023/07/03 09:05:14;;;;;;;19.23;13.10;;;26.70;99.90;;;;;;5289276;28;20070;-71
2023/07/03 09:07:54;;;;;;;17.33;13.73;;;26.40;99.90;;;;;;5288980;28;20042;-70
2023/07/03 09:10:49;;;;;;;15.30;13.25;;;26.50;99.90;;;;;;5288941;28;20108;-71
2023/07/03 09:13:34;;;;;;;15.20;13.32;;;26.20;99.90;;;;;;5279066;28;20040;-70
2023/07/03 09:16:21;;;;;;;15.27;12.50;;;26.50;99.90;;;;;;5289016;28;20079;-70
2023/07/03 09:19:17;;;;;;;17.90;12.23;;;26.60;99.90;;;;;;5289021;28;20019;-70
2023/07/03 09:21:56;;;;;;;16.02;13.13;;;26.40;99.90;;;;;;5288813;28;20044;-70
2023/07/03 09:24:48;;;;;;;16.42;12.57;;;26.70;99.90;;;;;;5288983;28;20563;-70
2023/07/03 09:27:25;;;;;;;15.65;14.05;;;27.00;99.90;;;;;;5288829;28;20077;-70
2023/07/03 09:46:14;;;;;;;26.30;24.17;;;27.00;99.90;;;;;;5307533;27;20389;-70
2023/07/03 09:48:45;;;;;;;34.00;31.33;;;26.50;99.90;;;;;;5307622;27;20076;-70
2023/07/03 09:51:22;;;;;;;32.80;30.35;;;26.60;99.90;;;;;;5307478;27;20098;-71
2023/07/03 09:53:56;;;;;;;28.13;25.85;;;26.60;99.90;;;;;;5307493;27;20035;-70
2023/07/03 09:56:30;;;;;;;28.23;25.83;;;26.80;99.90;;;;;;5307185;27;20034;-70
2023/07/03 09:59:05;;;;;;;22.52;20.52;;;27.20;99.90;;;;;;5307371;27;20026;-70
2023/07/03 10:01:39;;;;;;;21.85;20.13;;;27.40;99.90;;;;;;5307223;28;20103;-71
2023/07/03 10:04:13;;;;;;;16.45;14.88;;;27.60;99.90;;;;;;5307165;27;20025;-71
2023/07/03 10:07:05;;;;;;;13.27;11.88;;;27.70;99.90;;;;;;5306993;27;20339;-71
2023/07/03 10:09:39;;;;;;;14.52;13.05;;;28.00;99.90;;;;;;5307005;27;20028;-70
2023/07/03 10:12:36;;;;;;;15.43;12.98;;;28.20;99.90;;;;;;5306950;27;20482;-70
2023/07/03 10:15:23;;;;;;;14.73;13.38;;;28.30;99.90;;;;;;5306817;27;20548;-70
2023/07/03 10:17:59;;;;;;;12.50;11.40;;;28.40;99.90;;;;;;5306912;27;20028;-71
2023/07/03 10:20:36;;;;;;;13.85;12.38;;;28.70;99.90;;;;;;5305633;28;20023;-71
2023/07/03 10:23:11;;;;;;;13.23;11.93;;;28.60;99.90;;;;;;5306792;27;20078;-71
2023/07/03 10:25:47;;;;;;;14.20;11.68;;;28.80;99.90;;;;;;5306746;27;20057;-70
2023/07/03 10:28:23;;;;;;;11.18;10.07;;;28.60;99.90;;;;;;5306656;27;20019;-71
2023/07/03 10:30:59;;;;;;;12.15;10.90;;;28.40;99.90;;;;;;5306646;27;20060;-70
2023/07/03 10:33:38;;;;;;;12.02;9.98;;;28.40;99.90;;;;;;5306551;27;20026;-71
2023/07/03 10:36:15;;;;;;;11.57;10.38;;;28.30;99.90;;;;;;5306390;27;20047;-71
2023/07/03 10:38:55;;;;;;;13.65;10.70;;;28.40;99.90;;;;;;5306463;27;20015;-71
2023/07/03 10:41:33;;;;;;;11.63;10.45;;;28.10;99.90;;;;;;5306429;27;20028;-70
2023/07/03 10:44:12;;;;;;;14.55;13.07;;;28.00;99.90;;;;;;5306208;27;20451;-70
2023/07/03 10:46:48;;;;;;;13.32;12.02;;;28.00;99.90;;;;;;5294068;27;20031;-70
2023/07/03 10:49:40;;;;;;;13.27;12.00;;;28.00;99.90;;;;;;5290815;28;20039;-71
2023/07/03 10:52:29;;;;;;;14.63;13.13;;;28.00;99.90;;;;;;5292020;28;20447;-71
2023/07/03 10:55:10;;;;;;;14.68;10.35;;;28.20;99.90;;;;;;5292189;27;20123;-70
2023/07/03 10:58:02;;;;;;;10.07;8.23;;;28.40;99.90;;;;;;5291949;27;20512;-71
2023/07/03 11:00:56;;;;;;;9.40;8.18;;;28.50;99.90;;;;;;5291829;28;20028;-71
2023/07/03 11:03:47;;;;;;;11.32;7.45;;;28.70;99.90;;;;;;5291823;28;20036;-71
2023/07/03 11:06:50;;;;;;;7.90;6.75;;;28.90;99.90;;;;;;5291770;28;20030;-71
2023/07/03 11:09:46;;;;;;;9.50;7.18;;;28.80;99.90;;;;;;5279268;28;20080;-71
2023/07/03 11:12:39;;;;;;;9.68;7.30;;;28.50;99.90;;;;;;5292019;28;20027;-71
2023/07/03 11:15:31;;;;;;;11.10;7.43;;;28.90;99.90;;;;;;5291652;27;20077;-70
2023/07/03 11:18:02;;;;;;;9.00;7.70;;;29.10;99.90;;;;;;5291783;28;20355;-70
2023/07/03 11:20:46;;;;;;;10.65;7.55;;;29.10;99.90;;;;;;5291509;28;20026;-71
2023/07/03 11:23:31;;;;;;;10.02;7.25;;;28.90;99.90;;;;;;5291531;28;20042;-70
2023/07/03 11:26:17;;;;;;;8.43;7.45;;;29.10;99.90;;;;;;5291521;28;20133;-71
2023/07/03 11:28:52;;;;;;;7.90;7.05;;;28.90;99.90;;;;;;5291509;28;20020;-71
2023/07/03 11:31:26;;;;;;;7.45;6.15;;;28.90;99.90;;;;;;5291323;28;20027;-71
2023/07/03 11:33:57;;;;;;;10.85;7.20;;;29.10;99.90;;;;;;5291231;28;20110;-71
2023/07/03 11:36:37;;;;;;;7.55;6.75;;;29.00;99.90;;;;;;5291062;28;20046;-70
2023/07/03 11:39:15;;;;;;;8.88;7.00;;;29.10;99.90;;;;;;5291044;28;20023;-71
2023/07/03 11:42:02;;;;;;;8.30;7.50;;;28.90;99.90;;;;;;5291100;28;20020;-71
2023/07/03 11:44:38;;;;;;;7.45;6.72;;;29.00;99.90;;;;;;5290751;28;20044;-70
2023/07/03 11:47:13;;;;;;;6.88;5.90;;;29.10;99.90;;;;;;5290960;28;20453;-71
2023/07/03 11:49:47;;;;;;;8.20;6.07;;;29.00;99.90;;;;;;5289679;28;20077;-71
2023/07/03 11:52:28;;;;;;;6.85;6.15;;;29.20;99.90;;;;;;5290962;28;20441;-71
2023/07/03 11:55:08;;;;;;;7.05;6.10;;;28.90;99.90;;;;;;5290738;28;20526;-71
2023/07/03 11:57:41;;;;;;;8.70;5.32;;;29.20;99.90;;;;;;5289813;28;20450;-71
2023/07/03 12:00:28;;;;;;;7.10;6.40;;;29.20;99.90;;;;;;5289343;28;20042;-70
2023/07/03 12:03:05;;;;;;;8.73;6.63;;;29.10;99.90;;;;;;5289327;28;20647;-70
2023/07/03 12:05:47;;;;;;;10.23;7.55;;;29.30;99.90;;;;;;5290463;28;20447;-70
2023/07/03 12:08:18;;;;;;;6.88;6.20;;;29.40;99.90;;;;;;5290438;28;20027;-70
2023/07/03 12:10:57;;;;;;;7.10;5.43;;;29.50;99.90;;;;;;5290528;28;20020;-71
2023/07/03 12:13:41;;;;;;;8.43;6.75;;;29.10;99.90;;;;;;5289066;28;20471;-70
2023/07/03 12:16:22;;;;;;;9.23;6.38;;;29.40;99.90;;;;;;5290240;28;20038;-70
2023/07/03 12:18:59;;;;;;;8.30;6.63;;;29.40;99.90;;;;;;5290311;28;20034;-71
2023/07/03 12:21:47;;;;;;;6.90;6.20;;;29.50;99.90;;;;;;5288925;28;20038;-70
2023/07/03 12:24:24;;;;;;;9.67;7.07;;;29.40;99.90;;;;;;5290202;28;20028;-70
2023/07/03 12:27:01;;;;;;;10.02;6.80;;;29.20;99.90;;;;;;5290051;28;20051;-70
2023/07/03 12:29:35;;;;;;;7.15;6.35;;;29.20;99.90;;;;;;5290172;28;20024;-70
2023/07/03 12:32:09;;;;;;;7.22;6.45;;;29.20;99.90;;;;;;5290108;28;20467;-71
2023/07/03 12:34:42;;;;;;;9.07;6.70;;;29.40;99.90;;;;;;5289890;28;20085;-71
2023/07/03 12:37:19;;;;;;;6.25;5.68;;;29.40;99.90;;;;;;5290104;28;20058;-71
2023/07/03 12:39:51;;;;;;;9.07;6.35;;;29.50;99.90;;;;;;5289835;28;20043;-70
2023/07/03 12:42:24;;;;;;;8.30;6.63;;;29.50;99.90;;;;;;5289786;28;20024;-71
2023/07/03 12:45:18;;;;;;;8.27;7.45;;;29.40;99.90;;;;;;5289616;28;20054;-70
2023/07/03 12:48:10;;;;;;;10.38;7.18;;;29.60;99.90;;;;;;5289839;28;20463;-71
2023/07/03 12:50:55;;;;;;;6.97;6.22;;;29.60;99.90;;;;;;5289738;28;20102;-70
2023/07/03 12:53:34;;;;;;;23.63;5.85;;;29.60;99.90;;;;;;5289547;28;20054;-70
2023/07/03 12:56:08;;;;;;;7.32;6.03;;;29.60;99.90;;;;;;5289631;28;20382;-70
2023/07/03 12:58:40;;;;;;;7.07;5.75;;;29.70;99.90;;;;;;5289547;28;20016;-71
2023/07/03 13:01:12;;;;;;;7.35;4.70;;;29.60;99.90;;;;;;5289476;28;20371;-70
2023/07/03 13:03:44;;;;;;;7.97;5.32;;;29.60;99.90;;;;;;5289449;28;20027;-71
2023/07/03 13:06:28;;;;;;;7.40;4.70;;;29.30;99.90;;;;;;5289287;28;20072;-70
2023/07/03 13:09:00;;;;;;;6.20;4.93;;;29.50;99.90;;;;;;5289074;28;20032;-71
2023/07/03 13:11:45;;;;;;;6.07;5.22;;;29.40;99.90;;;;;;5289273;28;20028;-70
2023/07/03 13:14:21;;;;;;;8.07;6.55;;;29.60;99.90;;;;;;5289119;28;20047;-70
2023/07/03 13:17:00;;;;;;;8.25;5.55;;;29.60;99.90;;;;;;5289136;28;20106;-71
2023/07/03 13:19:34;;;;;;;7.15;6.55;;;29.50;99.90;;;;;;5289366;28;20020;-70
2023/07/03 13:22:13;;;;;;;6.53;5.93;;;29.50;99.90;;;;;;5289167;28;20430;-70
2023/07/03 13:24:49;;;;;;;6.10;5.60;;;29.40;99.90;;;;;;5289347;27;20103;-71